Meteorología y climatología de Navarra
Datos de la estación - Meteo Navarra

Estación de Aguilar de Codés GN

Altitud 736 m.


Datos desde el 15/02/2020 hasta el 16/02/2020 en horario solar
Los datos son PROVISIONALES

Anterior Página 1 de 1 Siguiente Descargar: Formato para Excel 2000 o superior   Formato csv   Formato para OpenOffice Calc
Fecha Temperatura Humedad relativa Radiación global Insolación Precipitación Vel. viento 10 m Vel. viento 10 m Dir. viento 10 m
ºC % W/m² s l/m² m/s km/h º
15/02/2020 0:00 8.1 80 0.0 0 0.0 2.3 8.3 281
15/02/2020 0:10 7.9 80 0.0 0 0.0 2.1 7.5 274
15/02/2020 0:20 7.0 83 0.0 0 0.0 1.1 4.0 309
15/02/2020 0:30 6.9 84 0.0 0 0.0 1.6 5.7 299
15/02/2020 0:40 6.4 86 0.0 0 0.0 2.1 7.7 319
15/02/2020 0:50 6.8 86 0.0 0 0.0 1.7 6.3 316
15/02/2020 1:00 6.7 85 0.0 0 0.0 1.4 5.1 324
15/02/2020 1:10 6.3 86 0.0 0 0.0 0.8 3.0 312
15/02/2020 1:20 6.1 86 0.0 0 0.0 0.9 3.4 330
15/02/2020 1:30 5.5 87 0.0 0 0.0 0.6 2.1 327
15/02/2020 1:40 5.6 89 0.0 0 0.0 0.3 0.9 314
15/02/2020 1:50 5.7 89 0.0 0 0.0 0.8 2.8 326
15/02/2020 2:00 5.6 90 0.0 0 0.0 1.1 4.1 321
15/02/2020 2:10 5.8 89 0.0 0 0.0 0.6 2.0 323
15/02/2020 2:20 5.6 89 0.0 0 0.0 0.4 1.4 317
15/02/2020 2:30 5.5 90 0.0 0 0.0 1.6 5.7 316
15/02/2020 2:40 5.6 90 0.0 0 0.0 1.7 6.2 314
15/02/2020 2:50 5.8 90 0.0 0 0.0 0.7 2.6 305
15/02/2020 3:00 5.5 90 0.0 0 0.0 1.1 3.8 276
15/02/2020 3:10 5.4 90 0.0 0 0.0 0.6 2.2 306
15/02/2020 3:20 4.8 90 0.0 0 0.0 1.4 5.0 320
15/02/2020 3:30 4.8 92 0.0 0 0.0 0.8 3.0 277
15/02/2020 3:40 5.3 92 0.0 0 0.0 1.6 5.8 273
15/02/2020 3:50 6.1 91 0.0 0 0.0 3.7 13.3 303
15/02/2020 4:00 6.0 89 0.0 0 0.0 2.4 8.6 310
15/02/2020 4:10 6.3 89 0.0 0 0.0 2.1 7.6 296
15/02/2020 4:20 6.1 88 0.0 0 0.0 2.1 7.7 272
15/02/2020 4:30 6.1 89 0.0 0 0.0 1.4 4.9 267
15/02/2020 4:40 6.4 89 0.0 0 0.0 0.7 2.3 239
15/02/2020 4:50 5.5 87 0.0 0 0.0 0.8 3.0 318
15/02/2020 5:00 5.1 90 0.0 0 0.0 1.3 4.6 322
15/02/2020 5:10 5.5 91 0.0 0 0.0 1.1 4.0 317
15/02/2020 5:20 5.5 91 0.0 0 0.0 0.3 1.2 322
15/02/2020 5:30 4.8 91 0.0 0 0.0 1.3 4.8 323
15/02/2020 5:40 5.0 92 0.0 0 0.0 0.3 1.2 217
15/02/2020 5:50 4.6 92 0.0 0 0.0 2.0 7.2 311
15/02/2020 6:00 5.1 92 0.0 0 0.0 0.9 3.3 301
15/02/2020 6:10 5.0 92 0.0 0 0.0 0.8 2.9 309
15/02/2020 6:20 4.8 92 0.0 0 0.0 2.1 7.5 319
15/02/2020 6:30 5.2 93 0.0 0 0.0 1.3 4.8 284
15/02/2020 6:40 5.2 92 0.0 0 0.0 1.7 5.9 273
15/02/2020 6:50 5.2 92 0.0 0 0.0 1.3 4.6 284
15/02/2020 7:00 5.5 92 0.0 0 0.0 1.0 3.7 243
15/02/2020 7:10 5.0 90 0.0 0 0.0 1.4 5.1 334
15/02/2020 7:20 4.3 92 10.7 0 0.0 1.4 5.1 331
15/02/2020 7:30 4.8 92 31.8 342 0.0 0.8 2.9 224
15/02/2020 7:40 5.1 91 53.1 600 0.0 0.8 2.7 97
15/02/2020 7:50 4.6 92 77.4 600 0.0 0.9 3.4 327
15/02/2020 8:00 4.8 92 103.8 600 0.0 1.6 5.8 322
15/02/2020 8:10 5.5 92 134.0 600 0.0 0.4 1.4 320
15/02/2020 8:20 5.7 92 159.7 600 0.0 0.4 1.5 338
15/02/2020 8:30 6.2 91 184.0 600 0.0 0.3 1.2 70
15/02/2020 8:40 6.3 90 212.1 600 0.0 0.8 3.0 23
15/02/2020 8:50 7.6 88 236.4 600 0.0 0.5 1.7 144
15/02/2020 9:00 8.5 83 264.7 600 0.0 0.6 2.2 179
15/02/2020 9:10 9.2 79 291.9 600 0.0 0.6 2.2 156
15/02/2020 9:20 9.4 77 318.2 600 0.0 0.7 2.4 160
15/02/2020 9:30 9.1 79 345.3 600 0.0 2.6 9.5 118
15/02/2020 9:40 8.9 81 371.8 600 0.0 1.9 6.9 97
15/02/2020 9:50 9.0 79 196.6 190 0.0 2.1 7.6 111
15/02/2020 10:00 8.9 81 344.9 412 0.0 1.7 6.1 104
15/02/2020 10:10 9.2 79 324.0 338 0.0 2.2 7.7 115
15/02/2020 10:20 9.2 79 357.9 368 0.0 1.5 5.5 119
15/02/2020 10:30 10.1 75 453.3 558 0.0 1.6 5.6 123
15/02/2020 10:40 10.5 74 497.6 600 0.0 2.0 7.1 136
15/02/2020 10:50 10.7 74 513.3 600 0.0 2.0 7.2 132
15/02/2020 11:00 11.1 73 520.2 600 0.0 2.4 8.6 113
15/02/2020 11:10 11.6 71 529.1 600 0.0 2.5 9.0 114
15/02/2020 11:20 11.7 70 518.8 578 0.0 2.0 7.2 104
15/02/2020 11:30 12.2 69 552.8 600 0.0 0.8 2.7 81
15/02/2020 11:40 12.2 68 547.6 594 0.0 0.7 2.4 53
15/02/2020 11:50 12.4 67 479.7 518 0.0 0.7 2.4 98
15/02/2020 12:00 12.5 67 458.8 434 0.0 2.2 7.9 127
15/02/2020 12:10 12.4 67 603.2 600 0.0 2.1 7.6 120
15/02/2020 12:20 12.6 67 617.7 600 0.0 2.8 10.2 113
15/02/2020 12:30 12.6 67 628.4 600 0.0 3.2 11.6 102
15/02/2020 12:40 12.9 66 637.1 600 0.0 3.5 12.7 110
15/02/2020 12:50 12.7 67 466.7 600 0.0 3.7 13.4 105
15/02/2020 13:00 12.4 68 515.3 600 0.0 3.8 13.7 104
15/02/2020 13:10 12.2 68 499.7 600 0.0 4.2 15.0 104
15/02/2020 13:20 12.3 68 464.4 600 0.0 3.7 13.3 101
15/02/2020 13:30 12.1 68 408.2 600 0.0 3.3 11.9 101
15/02/2020 13:40 12.2 69 388.3 600 0.0 3.3 11.9 97
15/02/2020 13:50 12.1 69 337.3 600 0.0 2.6 9.3 94
15/02/2020 14:00 12.1 68 411.4 600 0.0 2.6 9.5 101
15/02/2020 14:10 12.5 67 430.8 600 0.0 2.3 8.2 97
15/02/2020 14:20 12.8 67 407.3 600 0.0 1.6 5.9 70
15/02/2020 14:30 12.8 66 447.8 600 0.0 2.1 7.4 113
15/02/2020 14:40 12.8 66 414.9 600 0.0 1.4 4.9 78
15/02/2020 14:50 13.0 64 348.5 600 0.0 2.3 8.2 108
15/02/2020 15:00 12.8 65 290.1 600 0.0 2.3 8.4 105
15/02/2020 15:10 12.5 65 218.2 324 0.0 1.6 5.9 98
15/02/2020 15:20 12.3 67 160.2 0 0.0 2.1 7.4 105
15/02/2020 15:30 11.9 69 120.7 0 0.0 1.7 6.2 98
15/02/2020 15:40 11.7 70 103.3 0 0.0 1.9 6.9 101
15/02/2020 15:50 11.6 71 88.7 0 0.0 2.0 7.2 109
15/02/2020 16:00 11.5 73 79.5 0 0.0 1.5 5.4 104
15/02/2020 16:10 11.2 74 63.8 0 0.0 1.8 6.3 103
15/02/2020 16:20 11.0 75 57.5 0 0.0 1.7 5.9 110
15/02/2020 16:30 10.9 76 69.2 0 0.0 1.5 5.3 99
15/02/2020 16:40 10.8 77 60.1 0 0.0 1.5 5.3 98
15/02/2020 16:50 10.5 78 50.4 0 0.0 1.8 6.3 105
15/02/2020 17:00 10.4 78 48.4 0 0.0 1.5 5.5 106
15/02/2020 17:10 10.2 80 40.4 0 0.0 1.0 3.6 86
15/02/2020 17:20 9.9 81 26.7 0 0.0 0.8 3.0 101
15/02/2020 17:30 9.7 81 11.7 0 0.0 0.8 2.8 46
15/02/2020 17:40 9.4 82 0.0 0 0.0 0.2 0.7 65
15/02/2020 17:50 9.3 83 0.0 0 0.0 0.5 1.6 18
15/02/2020 18:00 9.2 84 0.0 0 0.0 0.2 0.7 235
15/02/2020 18:10 8.9 84 0.0 0 0.0 0.7 2.6 287
15/02/2020 18:20 8.8 85 0.0 0 0.0 0.9 3.3 250
15/02/2020 18:30 8.3 85 0.0 0 0.0 1.3 4.7 317
15/02/2020 18:40 8.0 87 0.0 0 0.0 0.9 3.3 278
15/02/2020 18:50 7.6 88 0.0 0 0.0 1.0 3.5 269
15/02/2020 19:00 7.7 88 0.0 0 0.0 0.8 2.8 303
15/02/2020 19:10 7.2 88 0.0 0 0.0 0.6 2.3 300
15/02/2020 19:20 7.6 89 0.0 0 0.0 0.5 1.7 303
15/02/2020 19:30 7.5 88 0.0 0 0.0 0.5 1.8 282
15/02/2020 19:40 7.1 88 0.0 0 0.0 1.1 3.9 331
15/02/2020 19:50 7.2 89 0.0 0 0.0 1.1 3.8 319
15/02/2020 20:00 7.3 89 0.0 0 0.0 1.2 4.1 317
15/02/2020 20:10 7.4 89 0.0 0 0.0 1.0 3.6 305
15/02/2020 20:20 7.1 89 0.0 0 0.0 1.2 4.2 312
15/02/2020 20:30 7.5 89 0.0 0 0.0 1.0 3.5 309
15/02/2020 20:40 7.4 88 0.0 0 0.0 0.9 3.3 306
15/02/2020 20:50 7.2 88 0.0 0 0.0 1.0 3.6 316
15/02/2020 21:00 7.5 88 0.0 0 0.0 1.7 6.2 315
15/02/2020 21:10 7.8 87 0.0 0 0.0 0.9 3.3 301
15/02/2020 21:20 7.7 85 0.0 0 0.0 0.9 3.3 290
15/02/2020 21:30 6.7 87 0.0 0 0.0 1.7 6.0 316
15/02/2020 21:40 7.1 87 0.0 0 0.0 1.0 3.7 317
15/02/2020 21:50 7.0 87 0.0 0 0.0 1.1 3.9 316
15/02/2020 22:00 6.7 87 0.0 0 0.0 1.6 5.7 321
15/02/2020 22:10 7.3 87 0.0 0 0.0 1.6 5.7 316
15/02/2020 22:20 7.7 85 0.0 0 0.0 1.0 3.6 268
15/02/2020 22:30 8.1 82 0.0 0 0.0 0.5 1.8 184
15/02/2020 22:40 7.3 82 0.0 0 0.0 0.6 2.2 51
15/02/2020 22:50 6.3 86 0.0 0 0.0 1.0 3.7 323
15/02/2020 23:00 6.7 88 0.0 0 0.0 0.8 3.0 144
15/02/2020 23:10 6.6 87 0.0 0 0.0 1.2 4.3 59
15/02/2020 23:20 7.3 88 0.0 0 0.0 1.1 4.0 115
15/02/2020 23:30 6.9 86 0.0 0 0.0 0.9 3.2 337
15/02/2020 23:40 6.9 88 0.0 0 0.0 0.8 2.9 134
15/02/2020 23:50 6.9 88 0.0 0 0.0 1.0 3.5 109
Anterior Página 1 de 1 Siguiente

NOTA: Tipo de datos según el color:
   - Valores diarios o 10 minutos correctos
   - Valores diarios calculados a partir de un número de datos 10 minutos menor que 144 y mayor que 120, o de un número de datos semihorarios menor que 48 y mayor que 40 (caso de las estaciones de INTIA y del Ministerio)
   - Valores diez minutos estimados


Contacto        Enlaces        Aviso legal